CheckWX is a tool to help pilots better visualize weather data.  It is not intended as a substitute for an official pre-flight weather briefing.

03:04:14 UTC

KFSW METAR
Fort Madison Municipal Airport
Fort Madison, Iowa, USA
Current

9 mins ago

KFSW 230255Z AUTO 28005KT 10SM SCT011 BKN025 OVC060 20/20 A2993 RMK AO2
Observed
Sep-23 @ 02:55 UTC
Wind
  • 280° at 5 KTS
Visibility
10 SM
Flight Rules
MVFR
Cloud Levels
  • Scattered at 1,100' AGL
  • Broken at 2,500' AGL
  • Overcast at 6,000' AGL
Temperature
20°C / 68°F
Dewpoint
20°C / 68°F
Humidity
100%
Altimeter
29.93" Hg
Pressure
1013.52 hPa
Previous

29 mins ago

KFSW 230235Z AUTO 27003KT 10SM SCT041 OVC060 20/20 A2993 RMK AO2
Observed
Sep-23 @ 02:35 UTC
Wind
  • 270° at 3 KTS
Visibility
10 SM
Flight Rules
VFR
Cloud Levels
  • Scattered at 4,100' AGL
  • Overcast at 6,000' AGL
Temperature
20°C / 68°F
Dewpoint
20°C / 68°F
Humidity
100%
Altimeter
29.93" Hg
Pressure
1013.52 hPa
Previous

49 mins ago

KFSW 230215Z AUTO 26004KT 10SM -RA SCT034 OVC041 20/20 A2992 RMK AO2
Observed
Sep-23 @ 02:15 UTC
Wind
  • 260° at 4 KTS
Visibility
10 SM
Flight Rules
VFR
Conditions
Light Rain
Cloud Levels
  • Scattered at 3,400' AGL
  • Overcast at 4,100' AGL
Temperature
20°C / 68°F
Dewpoint
20°C / 68°F
Humidity
100%
Altimeter
29.92" Hg
Pressure
1013.22 hPa